sensor_id;sensor_type;location;lat;lon;timestamp;P1;durP1;ratioP1;P2;durP2;ratioP2
66189;SDS011;52992;52.084;5.412;2023-02-28T00:00:35;4.27;;;2.80;;
66189;SDS011;52992;52.084;5.412;2023-02-28T00:03:03;5.57;;;3.20;;
66189;SDS011;52992;52.084;5.412;2023-02-28T00:05:30;5.83;;;2.77;;
66189;SDS011;52992;52.084;5.412;2023-02-28T00:07:57;4.93;;;3.07;;
66189;SDS011;52992;52.084;5.412;2023-02-28T00:10:26;5.27;;;2.57;;
66189;SDS011;52992;52.084;5.412;2023-02-28T00:12:58;4.80;;;2.80;;
66189;SDS011;52992;52.084;5.412;2023-02-28T00:15:27;5.87;;;2.60;;
66189;SDS011;52992;52.084;5.412;2023-02-28T00:17:54;4.73;;;2.70;;
66189;SDS011;52992;52.084;5.412;2023-02-28T00:20:21;3.63;;;3.07;;
66189;SDS011;52992;52.084;5.412;2023-02-28T00:22:49;4.97;;;2.77;;
66189;SDS011;52992;52.084;5.412;2023-02-28T00:25:18;3.93;;;2.53;;
66189;SDS011;52992;52.084;5.412;2023-02-28T00:27:48;3.40;;;2.60;;
66189;SDS011;52992;52.084;5.412;2023-02-28T00:30:16;3.13;;;2.53;;
66189;SDS011;52992;52.084;5.412;2023-02-28T00:32:47;7.67;;;2.97;;
66189;SDS011;52992;52.084;5.412;2023-02-28T00:35:14;4.53;;;2.70;;
66189;SDS011;52992;52.084;5.412;2023-02-28T00:37:42;5.17;;;2.80;;
66189;SDS011;52992;52.084;5.412;2023-02-28T00:40:09;7.13;;;2.70;;
66189;SDS011;52992;52.084;5.412;2023-02-28T00:42:38;5.23;;;3.07;;
66189;SDS011;52992;52.084;5.412;2023-02-28T00:45:06;4.47;;;2.53;;
66189;SDS011;52992;52.084;5.412;2023-02-28T00:47:36;7.43;;;2.70;;
66189;SDS011;52992;52.084;5.412;2023-02-28T00:50:03;4.53;;;3.00;;
66189;SDS011;52992;52.084;5.412;2023-02-28T00:52:31;4.13;;;3.00;;
66189;SDS011;52992;52.084;5.412;2023-02-28T00:54:58;4.03;;;3.00;;
66189;SDS011;52992;52.084;5.412;2023-02-28T00:57:24;5.90;;;2.90;;
66189;SDS011;52992;52.084;5.412;2023-02-28T00:59:52;6.43;;;2.90;;
66189;SDS011;52992;52.084;5.412;2023-02-28T01:02:21;5.67;;;2.97;;
66189;SDS011;52992;52.084;5.412;2023-02-28T01:04:51;5.30;;;3.17;;
66189;SDS011;52992;52.084;5.412;2023-02-28T01:07:18;6.10;;;3.20;;
66189;SDS011;52992;52.084;5.412;2023-02-28T01:09:45;5.53;;;3.20;;
66189;SDS011;52992;52.084;5.412;2023-02-28T01:12:12;4.87;;;3.30;;
66189;SDS011;52992;52.084;5.412;2023-02-28T01:14:39;3.80;;;2.90;;
66189;SDS011;52992;52.084;5.412;2023-02-28T01:17:05;3.90;;;2.87;;
66189;SDS011;52992;52.084;5.412;2023-02-28T01:19:32;4.53;;;3.00;;
66189;SDS011;52992;52.084;5.412;2023-02-28T01:22:02;4.67;;;3.13;;
66189;SDS011;52992;52.084;5.412;2023-02-28T01:24:30;5.10;;;2.63;;
66189;SDS011;52992;52.084;5.412;2023-02-28T01:26:59;6.40;;;3.03;;
66189;SDS011;52992;52.084;5.412;2023-02-28T01:29:26;5.13;;;2.80;;
66189;SDS011;52992;52.084;5.412;2023-02-28T01:31:53;5.07;;;3.30;;
66189;SDS011;52992;52.084;5.412;2023-02-28T01:34:20;7.80;;;3.23;;
66189;SDS011;52992;52.084;5.412;2023-02-28T01:36:46;5.73;;;3.27;;
66189;SDS011;52992;52.084;5.412;2023-02-28T01:39:13;3.93;;;3.07;;
66189;SDS011;52992;52.084;5.412;2023-02-28T01:41:40;5.70;;;3.23;;
66189;SDS011;52992;52.084;5.412;2023-02-28T01:47:13;7.47;;;2.97;;
66189;SDS011;52992;52.084;5.412;2023-02-28T01:49:40;6.03;;;2.87;;
66189;SDS011;52992;52.084;5.412;2023-02-28T01:52:08;5.13;;;2.80;;
66189;SDS011;52992;52.084;5.412;2023-02-28T01:54:41;6.00;;;3.17;;
66189;SDS011;52992;52.084;5.412;2023-02-28T01:57:16;4.90;;;2.80;;
66189;SDS011;52992;52.084;5.412;2023-02-28T01:59:48;5.23;;;3.20;;
66189;SDS011;52992;52.084;5.412;2023-02-28T02:02:17;8.33;;;2.80;;
66189;SDS011;52992;52.084;5.412;2023-02-28T02:04:57;4.57;;;3.13;;
66189;SDS011;52992;52.084;5.412;2023-02-28T02:07:55;5.23;;;2.83;;
66189;SDS011;52992;52.084;5.412;2023-02-28T02:13:05;7.43;;;3.00;;
66189;SDS011;52992;52.084;5.412;2023-02-28T02:15:42;5.87;;;3.20;;
66189;SDS011;52992;52.084;5.412;2023-02-28T02:21:11;4.47;;;2.53;;
66189;SDS011;52992;52.084;5.412;2023-02-28T02:38:40;3.63;;;2.90;;
66189;SDS011;52992;52.084;5.412;2023-02-28T02:41:24;4.33;;;3.03;;
66189;SDS011;52992;52.084;5.412;2023-02-28T02:44:16;3.20;;;2.90;;
66189;SDS011;52992;52.084;5.412;2023-02-28T02:46:51;6.17;;;3.40;;
66189;SDS011;52992;52.084;5.412;2023-02-28T02:49:30;3.80;;;2.97;;
66189;SDS011;52992;52.084;5.412;2023-02-28T02:52:05;4.50;;;2.60;;
66189;SDS011;52992;52.084;5.412;2023-02-28T02:54:40;5.57;;;3.23;;
66189;SDS011;52992;52.084;5.412;2023-02-28T02:57:13;6.30;;;2.60;;
66189;SDS011;52992;52.084;5.412;2023-02-28T02:59:46;4.40;;;2.93;;
66189;SDS011;52992;52.084;5.412;2023-02-28T03:02:15;4.27;;;3.27;;
66189;SDS011;52992;52.084;5.412;2023-02-28T03:04:45;3.80;;;3.00;;
66189;SDS011;52992;52.084;5.412;2023-02-28T03:07:20;4.00;;;2.90;;
66189;SDS011;52992;52.084;5.412;2023-02-28T03:09:50;5.60;;;3.23;;
66189;SDS011;52992;52.084;5.412;2023-02-28T03:12:19;4.20;;;2.90;;
66189;SDS011;52992;52.084;5.412;2023-02-28T03:17:36;3.47;;;2.70;;
66189;SDS011;52992;52.084;5.412;2023-02-28T03:20:21;6.33;;;3.40;;
66189;SDS011;52992;52.084;5.412;2023-02-28T03:23:19;7.23;;;3.33;;
66189;SDS011;52992;52.084;5.412;2023-02-28T03:32:18;4.63;;;3.20;;
66189;SDS011;52992;52.084;5.412;2023-02-28T03:34:54;5.13;;;3.10;;
66189;SDS011;52992;52.084;5.412;2023-02-28T03:37:32;5.57;;;3.20;;
66189;SDS011;52992;52.084;5.412;2023-02-28T03:40:10;5.90;;;3.17;;
66189;SDS011;52992;52.084;5.412;2023-02-28T03:42:44;5.83;;;3.17;;
66189;SDS011;52992;52.084;5.412;2023-02-28T03:45:21;5.27;;;3.17;;
66189;SDS011;52992;52.084;5.412;2023-02-28T03:47:57;5.27;;;3.60;;
66189;SDS011;52992;52.084;5.412;2023-02-28T03:50:40;6.70;;;3.77;;
66189;SDS011;52992;52.084;5.412;2023-02-28T03:55:47;5.27;;;3.20;;
66189;SDS011;52992;52.084;5.412;2023-02-28T03:58:35;4.57;;;3.37;;
66189;SDS011;52992;52.084;5.412;2023-02-28T04:01:23;11.03;;;3.87;;
66189;SDS011;52992;52.084;5.412;2023-02-28T04:03:56;6.07;;;3.53;;
66189;SDS011;52992;52.084;5.412;2023-02-28T04:06:22;5.20;;;3.70;;
66189;SDS011;52992;52.084;5.412;2023-02-28T04:08:50;6.70;;;3.63;;
66189;SDS011;52992;52.084;5.412;2023-02-28T04:11:25;5.97;;;3.40;;
66189;SDS011;52992;52.084;5.412;2023-02-28T04:14:05;4.50;;;3.50;;
66189;SDS011;52992;52.084;5.412;2023-02-28T04:16:35;5.77;;;3.57;;
66189;SDS011;52992;52.084;5.412;2023-02-28T04:19:04;5.33;;;3.57;;
66189;SDS011;52992;52.084;5.412;2023-02-28T04:21:37;6.23;;;3.30;;
66189;SDS011;52992;52.084;5.412;2023-02-28T04:24:06;4.73;;;3.17;;
66189;SDS011;52992;52.084;5.412;2023-02-28T04:26:41;5.00;;;3.30;;
66189;SDS011;52992;52.084;5.412;2023-02-28T04:29:11;5.13;;;3.00;;
66189;SDS011;52992;52.084;5.412;2023-02-28T04:31:39;6.80;;;3.60;;
66189;SDS011;52992;52.084;5.412;2023-02-28T04:34:06;4.20;;;3.00;;
66189;SDS011;52992;52.084;5.412;2023-02-28T04:36:33;4.60;;;2.70;;
66189;SDS011;52992;52.084;5.412;2023-02-28T04:39:00;4.63;;;2.90;;
66189;SDS011;52992;52.084;5.412;2023-02-28T04:41:27;5.07;;;3.20;;
66189;SDS011;52992;52.084;5.412;2023-02-28T04:43:57;3.50;;;2.73;;
66189;SDS011;52992;52.084;5.412;2023-02-28T04:46:24;3.50;;;3.00;;
66189;SDS011;52992;52.084;5.412;2023-02-28T04:48:51;4.23;;;3.30;;
66189;SDS011;52992;52.084;5.412;2023-02-28T04:51:20;7.80;;;3.10;;
66189;SDS011;52992;52.084;5.412;2023-02-28T04:53:46;5.27;;;3.13;;
66189;SDS011;52992;52.084;5.412;2023-02-28T04:56:14;5.53;;;3.00;;
66189;SDS011;52992;52.084;5.412;2023-02-28T04:58:43;3.63;;;3.03;;
66189;SDS011;52992;52.084;5.412;2023-02-28T05:01:29;5.73;;;2.73;;
66189;SDS011;52992;52.084;5.412;2023-02-28T05:03:59;3.70;;;2.97;;
66189;SDS011;52992;52.084;5.412;2023-02-28T05:06:29;3.73;;;3.10;;
66189;SDS011;52992;52.084;5.412;2023-02-28T05:08:57;3.23;;;2.57;;
66189;SDS011;52992;52.084;5.412;2023-02-28T05:11:25;4.77;;;2.97;;
66189;SDS011;52992;52.084;5.412;2023-02-28T05:14:01;5.27;;;2.77;;
66189;SDS011;52992;52.084;5.412;2023-02-28T05:16:29;4.07;;;3.00;;
66189;SDS011;52992;52.084;5.412;2023-02-28T05:18:57;5.03;;;3.03;;
66189;SDS011;52992;52.084;5.412;2023-02-28T05:21:26;4.60;;;3.50;;
66189;SDS011;52992;52.084;5.412;2023-02-28T05:23:55;4.33;;;2.63;;
66189;SDS011;52992;52.084;5.412;2023-02-28T05:26:23;4.07;;;2.90;;
66189;SDS011;52992;52.084;5.412;2023-02-28T05:28:50;7.30;;;2.97;;
66189;SDS011;52992;52.084;5.412;2023-02-28T05:31:18;4.37;;;2.97;;
66189;SDS011;52992;52.084;5.412;2023-02-28T05:33:44;5.27;;;2.97;;
66189;SDS011;52992;52.084;5.412;2023-02-28T05:36:11;8.33;;;3.57;;
66189;SDS011;52992;52.084;5.412;2023-02-28T05:38:38;7.10;;;3.37;;
66189;SDS011;52992;52.084;5.412;2023-02-28T05:41:06;4.40;;;2.80;;
66189;SDS011;52992;52.084;5.412;2023-02-28T05:43:36;3.97;;;2.77;;
66189;SDS011;52992;52.084;5.412;2023-02-28T05:46:04;5.57;;;3.07;;
66189;SDS011;52992;52.084;5.412;2023-02-28T05:48:35;5.07;;;3.17;;
66189;SDS011;52992;52.084;5.412;2023-02-28T05:51:04;3.90;;;3.00;;
66189;SDS011;52992;52.084;5.412;2023-02-28T05:53:32;3.57;;;3.00;;
66189;SDS011;52992;52.084;5.412;2023-02-28T05:55:59;6.00;;;3.10;;
66189;SDS011;52992;52.084;5.412;2023-02-28T05:58:26;4.50;;;2.80;;
66189;SDS011;52992;52.084;5.412;2023-02-28T06:00:57;5.03;;;3.10;;
66189;SDS011;52992;52.084;5.412;2023-02-28T06:03:25;3.03;;;2.60;;
66189;SDS011;52992;52.084;5.412;2023-02-28T06:05:52;4.23;;;2.90;;
66189;SDS011;52992;52.084;5.412;2023-02-28T06:08:20;3.63;;;2.90;;
66189;SDS011;52992;52.084;5.412;2023-02-28T06:10:47;5.93;;;3.33;;
66189;SDS011;52992;52.084;5.412;2023-02-28T06:13:13;5.30;;;3.10;;
66189;SDS011;52992;52.084;5.412;2023-02-28T06:15:41;7.00;;;3.20;;
66189;SDS011;52992;52.084;5.412;2023-02-28T06:18:08;6.43;;;3.03;;
66189;SDS011;52992;52.084;5.412;2023-02-28T06:20:35;4.60;;;3.07;;
66189;SDS011;52992;52.084;5.412;2023-02-28T06:23:02;4.63;;;3.10;;
66189;SDS011;52992;52.084;5.412;2023-02-28T06:25:29;4.07;;;3.07;;
66189;SDS011;52992;52.084;5.412;2023-02-28T06:27:56;3.83;;;2.80;;
66189;SDS011;52992;52.084;5.412;2023-02-28T06:30:23;4.33;;;2.63;;
66189;SDS011;52992;52.084;5.412;2023-02-28T06:32:53;5.43;;;3.17;;
66189;SDS011;52992;52.084;5.412;2023-02-28T06:35:20;4.90;;;3.00;;
66189;SDS011;52992;52.084;5.412;2023-02-28T06:37:48;4.63;;;3.37;;
66189;SDS011;52992;52.084;5.412;2023-02-28T06:40:15;4.23;;;3.00;;
66189;SDS011;52992;52.084;5.412;2023-02-28T06:42:42;4.87;;;3.17;;
66189;SDS011;52992;52.084;5.412;2023-02-28T06:45:10;9.27;;;3.53;;
66189;SDS011;52992;52.084;5.412;2023-02-28T06:47:37;5.60;;;2.97;;
66189;SDS011;52992;52.084;5.412;2023-02-28T06:50:06;4.13;;;3.17;;
66189;SDS011;52992;52.084;5.412;2023-02-28T06:52:38;4.43;;;3.00;;
66189;SDS011;52992;52.084;5.412;2023-02-28T06:55:06;3.87;;;3.07;;
66189;SDS011;52992;52.084;5.412;2023-02-28T06:57:34;5.03;;;3.00;;
66189;SDS011;52992;52.084;5.412;2023-02-28T07:00:03;3.83;;;3.17;;
66189;SDS011;52992;52.084;5.412;2023-02-28T07:02:36;4.37;;;3.83;;
66189;SDS011;52992;52.084;5.412;2023-02-28T07:05:04;3.77;;;3.30;;
66189;SDS011;52992;52.084;5.412;2023-02-28T07:07:32;3.83;;;3.13;;
66189;SDS011;52992;52.084;5.412;2023-02-28T07:09:59;4.20;;;3.40;;
66189;SDS011;52992;52.084;5.412;2023-02-28T07:12:26;3.93;;;3.17;;
66189;SDS011;52992;52.084;5.412;2023-02-28T07:14:53;4.50;;;3.27;;
66189;SDS011;52992;52.084;5.412;2023-02-28T07:17:22;3.53;;;3.10;;
66189;SDS011;52992;52.084;5.412;2023-02-28T07:19:48;6.13;;;3.47;;
66189;SDS011;52992;52.084;5.412;2023-02-28T07:22:15;3.70;;;3.30;;
66189;SDS011;52992;52.084;5.412;2023-02-28T07:24:42;6.07;;;3.70;;
66189;SDS011;52992;52.084;5.412;2023-02-28T07:27:09;5.60;;;3.87;;
66189;SDS011;52992;52.084;5.412;2023-02-28T07:29:35;4.17;;;3.27;;
66189;SDS011;52992;52.084;5.412;2023-02-28T07:32:03;6.60;;;4.17;;
66189;SDS011;52992;52.084;5.412;2023-02-28T07:34:30;5.63;;;3.77;;
66189;SDS011;52992;52.084;5.412;2023-02-28T07:37:00;6.77;;;3.80;;
66189;SDS011;52992;52.084;5.412;2023-02-28T07:39:29;6.93;;;4.00;;
66189;SDS011;52992;52.084;5.412;2023-02-28T07:41:56;6.13;;;4.00;;
66189;SDS011;52992;52.084;5.412;2023-02-28T07:44:25;4.93;;;4.30;;
66189;SDS011;52992;52.084;5.412;2023-02-28T07:46:52;6.80;;;4.80;;
66189;SDS011;52992;52.084;5.412;2023-02-28T07:49:19;6.77;;;4.67;;
66189;SDS011;52992;52.084;5.412;2023-02-28T07:51:46;5.97;;;4.20;;
66189;SDS011;52992;52.084;5.412;2023-02-28T07:54:13;6.37;;;4.20;;
66189;SDS011;52992;52.084;5.412;2023-02-28T07:56:39;6.93;;;4.37;;
66189;SDS011;52992;52.084;5.412;2023-02-28T07:59:06;5.53;;;4.00;;
66189;SDS011;52992;52.084;5.412;2023-02-28T08:01:33;5.27;;;3.90;;
66189;SDS011;52992;52.084;5.412;2023-02-28T08:04:00;7.30;;;3.80;;
66189;SDS011;52992;52.084;5.412;2023-02-28T08:06:27;6.20;;;3.77;;
66189;SDS011;52992;52.084;5.412;2023-02-28T08:08:53;5.07;;;3.53;;
66189;SDS011;52992;52.084;5.412;2023-02-28T08:11:22;6.87;;;4.10;;
66189;SDS011;52992;52.084;5.412;2023-02-28T08:13:49;9.60;;;4.00;;
66189;SDS011;52992;52.084;5.412;2023-02-28T08:16:16;5.10;;;3.57;;
66189;SDS011;52992;52.084;5.412;2023-02-28T08:18:51;7.37;;;4.40;;
66189;SDS011;52992;52.084;5.412;2023-02-28T08:21:19;6.20;;;4.53;;
66189;SDS011;52992;52.084;5.412;2023-02-28T08:23:50;8.10;;;4.53;;
66189;SDS011;52992;52.084;5.412;2023-02-28T08:26:17;6.43;;;4.67;;
66189;SDS011;52992;52.084;5.412;2023-02-28T08:28:45;8.17;;;4.57;;
66189;SDS011;52992;52.084;5.412;2023-02-28T08:31:13;7.33;;;5.07;;
66189;SDS011;52992;52.084;5.412;2023-02-28T08:33:42;5.57;;;4.07;;
66189;SDS011;52992;52.084;5.412;2023-02-28T08:36:11;6.23;;;4.93;;
66189;SDS011;52992;52.084;5.412;2023-02-28T08:38:38;5.80;;;4.00;;
66189;SDS011;52992;52.084;5.412;2023-02-28T08:41:06;7.70;;;4.20;;
66189;SDS011;52992;52.084;5.412;2023-02-28T08:43:36;7.77;;;4.03;;
66189;SDS011;52992;52.084;5.412;2023-02-28T08:46:04;5.60;;;3.50;;
66189;SDS011;52992;52.084;5.412;2023-02-28T08:48:34;5.43;;;4.30;;
66189;SDS011;52992;52.084;5.412;2023-02-28T08:51:05;4.53;;;3.73;;
66189;SDS011;52992;52.084;5.412;2023-02-28T08:53:35;7.93;;;3.97;;
66189;SDS011;52992;52.084;5.412;2023-02-28T08:56:04;6.00;;;3.93;;
66189;SDS011;52992;52.084;5.412;2023-02-28T08:58:36;5.73;;;3.97;;
66189;SDS011;52992;52.084;5.412;2023-02-28T09:01:13;5.53;;;3.67;;
66189;SDS011;52992;52.084;5.412;2023-02-28T09:03:41;4.43;;;3.77;;
66189;SDS011;52992;52.084;5.412;2023-02-28T09:06:09;6.43;;;4.07;;
66189;SDS011;52992;52.084;5.412;2023-02-28T09:08:36;4.90;;;3.47;;
66189;SDS011;52992;52.084;5.412;2023-02-28T09:11:03;6.20;;;3.83;;
66189;SDS011;52992;52.084;5.412;2023-02-28T09:13:31;4.10;;;3.00;;
66189;SDS011;52992;52.084;5.412;2023-02-28T09:15:59;4.30;;;3.10;;
66189;SDS011;52992;52.084;5.412;2023-02-28T09:18:27;5.63;;;2.70;;
66189;SDS011;52992;52.084;5.412;2023-02-28T09:20:54;4.57;;;2.77;;
66189;SDS011;52992;52.084;5.412;2023-02-28T09:23:21;3.83;;;2.90;;
66189;SDS011;52992;52.084;5.412;2023-02-28T09:25:49;2.80;;;2.50;;
66189;SDS011;52992;52.084;5.412;2023-02-28T09:28:18;4.57;;;2.47;;
66189;SDS011;52992;52.084;5.412;2023-02-28T09:30:50;2.77;;;2.20;;
66189;SDS011;52992;52.084;5.412;2023-02-28T09:33:18;2.73;;;1.83;;
66189;SDS011;52992;52.084;5.412;2023-02-28T09:35:47;3.57;;;1.70;;
66189;SDS011;52992;52.084;5.412;2023-02-28T09:38:15;3.63;;;1.97;;
66189;SDS011;52992;52.084;5.412;2023-02-28T09:40:48;3.00;;;2.10;;
66189;SDS011;52992;52.084;5.412;2023-02-28T09:43:18;2.77;;;2.00;;
66189;SDS011;52992;52.084;5.412;2023-02-28T09:45:49;5.67;;;2.03;;
66189;SDS011;52992;52.084;5.412;2023-02-28T09:48:33;2.10;;;1.90;;
66189;SDS011;52992;52.084;5.412;2023-02-28T09:51:15;1.90;;;1.77;;
66189;SDS011;52992;52.084;5.412;2023-02-28T09:53:53;3.90;;;2.33;;
66189;SDS011;52992;52.084;5.412;2023-02-28T09:56:36;3.20;;;2.20;;
66189;SDS011;52992;52.084;5.412;2023-02-28T09:59:09;2.53;;;2.30;;
66189;SDS011;52992;52.084;5.412;2023-02-28T10:04:33;2.33;;;1.83;;
66189;SDS011;52992;52.084;5.412;2023-02-28T10:07:16;4.13;;;2.20;;
66189;SDS011;52992;52.084;5.412;2023-02-28T10:09:49;4.17;;;1.90;;
66189;SDS011;52992;52.084;5.412;2023-02-28T10:12:21;3.50;;;2.00;;
66189;SDS011;52992;52.084;5.412;2023-02-28T10:14:49;2.77;;;2.20;;
66189;SDS011;52992;52.084;5.412;2023-02-28T10:17:23;3.37;;;2.00;;
66189;SDS011;52992;52.084;5.412;2023-02-28T10:22:36;3.00;;;2.50;;
66189;SDS011;52992;52.084;5.412;2023-02-28T10:25:26;2.63;;;2.23;;
66189;SDS011;52992;52.084;5.412;2023-02-28T10:28:00;2.07;;;1.90;;
66189;SDS011;52992;52.084;5.412;2023-02-28T10:30:34;4.43;;;2.10;;
66189;SDS011;52992;52.084;5.412;2023-02-28T10:33:04;2.97;;;2.10;;
66189;SDS011;52992;52.084;5.412;2023-02-28T10:35:30;1.87;;;1.60;;
66189;SDS011;52992;52.084;5.412;2023-02-28T10:38:00;2.27;;;1.83;;
66189;SDS011;52992;52.084;5.412;2023-02-28T10:40:36;2.43;;;2.10;;
66189;SDS011;52992;52.084;5.412;2023-02-28T10:43:04;2.13;;;1.70;;
66189;SDS011;52992;52.084;5.412;2023-02-28T10:45:33;3.23;;;2.10;;
66189;SDS011;52992;52.084;5.412;2023-02-28T10:51:05;3.47;;;2.20;;
66189;SDS011;52992;52.084;5.412;2023-02-28T10:53:36;2.80;;;1.70;;
66189;SDS011;52992;52.084;5.412;2023-02-28T10:56:26;2.33;;;1.97;;
66189;SDS011;52992;52.084;5.412;2023-02-28T11:01:49;2.10;;;1.73;;
66189;SDS011;52992;52.084;5.412;2023-02-28T11:07:31;2.43;;;2.23;;
66189;SDS011;52992;52.084;5.412;2023-02-28T11:09:50;2.43;;;2.00;;
66189;SDS011;52992;52.084;5.412;2023-02-28T11:12:36;3.17;;;2.40;;
66189;SDS011;52992;52.084;5.412;2023-02-28T11:20:32;3.77;;;2.00;;
66189;SDS011;52992;52.084;5.412;2023-02-28T11:23:00;1.97;;;1.77;;
66189;SDS011;52992;52.084;5.412;2023-02-28T11:25:31;3.17;;;1.90;;
66189;SDS011;52992;52.084;5.412;2023-02-28T11:28:01;2.47;;;2.07;;
66189;SDS011;52992;52.084;5.412;2023-02-28T11:30:36;2.17;;;1.80;;
66189;SDS011;52992;52.084;5.412;2023-02-28T11:33:18;2.00;;;1.80;;
66189;SDS011;52992;52.084;5.412;2023-02-28T11:35:46;3.33;;;2.00;;
66189;SDS011;52992;52.084;5.412;2023-02-28T11:38:16;2.00;;;1.90;;
66189;SDS011;52992;52.084;5.412;2023-02-28T11:40:45;3.83;;;1.80;;
66189;SDS011;52992;52.084;5.412;2023-02-28T11:43:23;3.07;;;2.10;;
66189;SDS011;52992;52.084;5.412;2023-02-28T11:48:43;2.53;;;1.67;;
66189;SDS011;52992;52.084;5.412;2023-02-28T11:51:35;1.70;;;1.60;;
66189;SDS011;52992;52.084;5.412;2023-02-28T11:57:00;5.70;;;2.20;;
66189;SDS011;52992;52.084;5.412;2023-02-28T12:10:57;1.90;;;1.80;;
66189;SDS011;52992;52.084;5.412;2023-02-28T12:13:46;1.97;;;1.80;;
66189;SDS011;52992;52.084;5.412;2023-02-28T12:21:42;2.00;;;1.77;;
66189;SDS011;52992;52.084;5.412;2023-02-28T12:24:39;2.10;;;1.87;;
66189;SDS011;52992;52.084;5.412;2023-02-28T12:27:11;2.17;;;1.97;;
66189;SDS011;52992;52.084;5.412;2023-02-28T12:29:46;2.93;;;1.90;;
66189;SDS011;52992;52.084;5.412;2023-02-28T12:32:26;4.10;;;2.03;;
66189;SDS011;52992;52.084;5.412;2023-02-28T12:35:01;1.90;;;1.77;;
66189;SDS011;52992;52.084;5.412;2023-02-28T12:37:38;2.17;;;1.97;;
66189;SDS011;52992;52.084;5.412;2023-02-28T12:40:14;3.77;;;1.60;;
66189;SDS011;52992;52.084;5.412;2023-02-28T12:42:45;2.03;;;1.73;;
66189;SDS011;52992;52.084;5.412;2023-02-28T12:45:31;3.10;;;1.73;;
66189;SDS011;52992;52.084;5.412;2023-02-28T12:48:20;4.57;;;1.97;;
66189;SDS011;52992;52.084;5.412;2023-02-28T12:50:55;1.63;;;1.53;;
66189;SDS011;52992;52.084;5.412;2023-02-28T12:53:25;2.27;;;2.07;;
66189;SDS011;52992;52.084;5.412;2023-02-28T13:09:59;4.20;;;2.30;;
66189;SDS011;52992;52.084;5.412;2023-02-28T13:12:28;3.07;;;2.30;;
66189;SDS011;52992;52.084;5.412;2023-02-28T13:15:06;3.07;;;2.30;;
66189;SDS011;52992;52.084;5.412;2023-02-28T13:17:41;2.77;;;1.93;;
66189;SDS011;52992;52.084;5.412;2023-02-28T13:20:15;2.13;;;1.80;;
66189;SDS011;52992;52.084;5.412;2023-02-28T13:22:45;1.93;;;1.83;;
66189;SDS011;52992;52.084;5.412;2023-02-28T13:28:11;2.53;;;2.00;;
66189;SDS011;52992;52.084;5.412;2023-02-28T13:31:02;2.40;;;1.93;;
66189;SDS011;52992;52.084;5.412;2023-02-28T13:33:31;3.40;;;2.17;;
66189;SDS011;52992;52.084;5.412;2023-02-28T13:41:36;2.40;;;2.13;;
66189;SDS011;52992;52.084;5.412;2023-02-28T13:49:28;2.73;;;2.20;;
66189;SDS011;52992;52.084;5.412;2023-02-28T13:54:39;3.50;;;2.20;;
66189;SDS011;52992;52.084;5.412;2023-02-28T13:57:41;2.33;;;2.13;;
66189;SDS011;52992;52.084;5.412;2023-02-28T14:11:31;3.63;;;2.13;;
66189;SDS011;52992;52.084;5.412;2023-02-28T14:14:00;3.63;;;2.47;;
66189;SDS011;52992;52.084;5.412;2023-02-28T14:16:48;2.70;;;2.30;;
66189;SDS011;52992;52.084;5.412;2023-02-28T14:19:21;2.40;;;2.20;;
66189;SDS011;52992;52.084;5.412;2023-02-28T14:22:03;2.13;;;1.97;;
66189;SDS011;52992;52.084;5.412;2023-02-28T14:24:42;2.30;;;1.83;;
66189;SDS011;52992;52.084;5.412;2023-02-28T14:27:37;2.50;;;2.23;;
66189;SDS011;52992;52.084;5.412;2023-02-28T14:38:50;3.33;;;2.43;;
66189;SDS011;52992;52.084;5.412;2023-02-28T14:41:33;2.40;;;2.20;;
66189;SDS011;52992;52.084;5.412;2023-02-28T14:44:03;3.37;;;2.37;;
66189;SDS011;52992;52.084;5.412;2023-02-28T14:46:50;2.60;;;2.17;;
66189;SDS011;52992;52.084;5.412;2023-02-28T14:49:21;2.97;;;2.33;;
66189;SDS011;52992;52.084;5.412;2023-02-28T14:52:14;3.60;;;2.30;;
66189;SDS011;52992;52.084;5.412;2023-02-28T14:54:45;2.30;;;2.10;;
66189;SDS011;52992;52.084;5.412;2023-02-28T14:57:27;6.90;;;2.50;;
66189;SDS011;52992;52.084;5.412;2023-02-28T15:00:22;2.57;;;2.10;;
66189;SDS011;52992;52.084;5.412;2023-02-28T15:02:52;2.50;;;2.20;;
66189;SDS011;52992;52.084;5.412;2023-02-28T15:05:27;3.17;;;2.07;;
66189;SDS011;52992;52.084;5.412;2023-02-28T15:08:02;2.60;;;2.13;;
66189;SDS011;52992;52.084;5.412;2023-02-28T15:10:31;3.00;;;2.10;;
66189;SDS011;52992;52.084;5.412;2023-02-28T15:13:01;3.70;;;2.03;;
66189;SDS011;52992;52.084;5.412;2023-02-28T15:18:15;3.07;;;2.27;;
66189;SDS011;52992;52.084;5.412;2023-02-28T15:20:58;3.07;;;1.97;;
66189;SDS011;52992;52.084;5.412;2023-02-28T15:23:31;2.30;;;2.10;;
66189;SDS011;52992;52.084;5.412;2023-02-28T15:25:59;3.20;;;2.10;;
66189;SDS011;52992;52.084;5.412;2023-02-28T15:28:27;2.20;;;2.00;;
66189;SDS011;52992;52.084;5.412;2023-02-28T15:31:02;2.33;;;2.13;;
66189;SDS011;52992;52.084;5.412;2023-02-28T15:33:30;2.40;;;2.13;;
66189;SDS011;52992;52.084;5.412;2023-02-28T15:36:15;2.40;;;2.20;;
66189;SDS011;52992;52.084;5.412;2023-02-28T15:38:50;2.23;;;1.83;;
66189;SDS011;52992;52.084;5.412;2023-02-28T15:41:22;3.60;;;2.20;;
66189;SDS011;52992;52.084;5.412;2023-02-28T15:47:05;2.43;;;2.20;;
66189;SDS011;52992;52.084;5.412;2023-02-28T15:49:45;2.27;;;2.07;;
66189;SDS011;52992;52.084;5.412;2023-02-28T15:52:22;2.37;;;2.17;;
66189;SDS011;52992;52.084;5.412;2023-02-28T15:54:58;2.43;;;2.23;;
66189;SDS011;52992;52.084;5.412;2023-02-28T15:57:25;4.67;;;2.63;;
66189;SDS011;52992;52.084;5.412;2023-02-28T15:59:55;3.30;;;3.00;;
66189;SDS011;52992;52.084;5.412;2023-02-28T16:02:30;3.00;;;2.50;;
66189;SDS011;52992;52.084;5.412;2023-02-28T16:07:40;5.63;;;2.23;;
66189;SDS011;52992;52.084;5.412;2023-02-28T16:10:09;2.80;;;2.10;;
66189;SDS011;52992;52.084;5.412;2023-02-28T16:12:40;4.10;;;3.70;;
66189;SDS011;52992;52.084;5.412;2023-02-28T16:15:08;3.50;;;2.33;;
66189;SDS011;52992;52.084;5.412;2023-02-28T16:17:52;6.70;;;3.00;;
66189;SDS011;52992;52.084;5.412;2023-02-28T16:20:24;3.77;;;2.50;;
66189;SDS011;52992;52.084;5.412;2023-02-28T16:22:53;2.97;;;1.90;;
66189;SDS011;52992;52.084;5.412;2023-02-28T16:25:22;2.70;;;2.17;;
66189;SDS011;52992;52.084;5.412;2023-02-28T16:27:53;2.10;;;1.57;;
66189;SDS011;52992;52.084;5.412;2023-02-28T16:30:22;2.27;;;2.00;;
66189;SDS011;52992;52.084;5.412;2023-02-28T16:32:51;2.07;;;1.93;;
66189;SDS011;52992;52.084;5.412;2023-02-28T16:35:19;2.37;;;1.87;;
66189;SDS011;52992;52.084;5.412;2023-02-28T16:37:47;2.30;;;1.90;;
66189;SDS011;52992;52.084;5.412;2023-02-28T16:40:15;4.00;;;1.93;;
66189;SDS011;52992;52.084;5.412;2023-02-28T16:42:43;3.97;;;2.03;;
66189;SDS011;52992;52.084;5.412;2023-02-28T16:45:22;3.00;;;2.13;;
66189;SDS011;52992;52.084;5.412;2023-02-28T16:47:51;4.27;;;2.40;;
66189;SDS011;52992;52.084;5.412;2023-02-28T16:50:22;4.27;;;2.80;;
66189;SDS011;52992;52.084;5.412;2023-02-28T16:52:51;3.17;;;2.60;;
66189;SDS011;52992;52.084;5.412;2023-02-28T16:55:22;3.53;;;2.57;;
66189;SDS011;52992;52.084;5.412;2023-02-28T16:57:51;4.07;;;2.63;;
66189;SDS011;52992;52.084;5.412;2023-02-28T17:00:20;3.07;;;2.60;;
66189;SDS011;52992;52.084;5.412;2023-02-28T17:02:47;2.70;;;2.30;;
66189;SDS011;52992;52.084;5.412;2023-02-28T17:05:14;3.23;;;2.50;;
66189;SDS011;52992;52.084;5.412;2023-02-28T17:07:41;3.40;;;2.53;;
66189;SDS011;52992;52.084;5.412;2023-02-28T17:10:11;4.23;;;2.70;;
66189;SDS011;52992;52.084;5.412;2023-02-28T17:12:42;3.30;;;2.57;;
66189;SDS011;52992;52.084;5.412;2023-02-28T17:15:10;5.43;;;2.80;;
66189;SDS011;52992;52.084;5.412;2023-02-28T17:17:38;4.57;;;3.43;;
66189;SDS011;52992;52.084;5.412;2023-02-28T17:20:06;5.07;;;2.97;;
66189;SDS011;52992;52.084;5.412;2023-02-28T17:22:37;5.37;;;3.50;;
66189;SDS011;52992;52.084;5.412;2023-02-28T17:25:05;5.07;;;3.50;;
66189;SDS011;52992;52.084;5.412;2023-02-28T17:27:32;5.63;;;3.73;;
66189;SDS011;52992;52.084;5.412;2023-02-28T17:29:59;6.40;;;3.97;;